Groton New London Airport
KGON : now visible

Airfield :











YOU CAN JOIN US ON...

 
LOGIN :

Register | Disclaimer

   EN    FR    IT 

 









Legend :    VFR   Marginal VFR   IFR   Intensive IFR   Very Intensive IFR
Visi :
Ceiling :
>= 8 km
>= 3000ft
5 to 8 km
1000 to 3000 ft
1500m to 5 km
500 to 1000 ft
800 to 1500m
200 to 500 ft
< 800m
< 200 ft
Symbols :   Thunderstorms  Fog  Heavy snow  Heavy precipitations  Wind > 20 kt






- Airport Elevation : 9 ft
- IATA code : GON


KGON - Groton New London

CURRENT METAR :
  • 301056Z AUTO 00000KT 10SM CLR 02/M01 A3015 RMK AO2 SLP209 T00171011 PNO $

EXPIRED METARs :
  • 300956Z AUTO 00000KT 10SM CLR 03/M01 A3014 RMK AO2 SLP204 T00331006 PNO $
  • 300856Z AUTO 26004KT 10SM CLR 06/M01 A3013 RMK AO2 SLP204 6//// T00611011 51008 PNO $

TAF KGON
Valid from the 30 at 09:00 until the 31 at 06:00 UTC


300839Z 3009/3106 VRB04KT P6SM FEW040 OVC250
FM301800 21009KT P6SM SCT040
FM310500 26005KT P6SM BKN030
KZBW FIR / North America



MET'MAP, your aeronautical weather chart ! - Copyright ORBIFLY December 2007 - Disclaimer

ORBIFLY MET'MAP TEAM :

Programming & Development : Alexandra Zaïnal
Original concept : Baudouin d'Aumeries
Technical & hardware support : Manuel Goepfert
Assistance : Marc-Olivier Méhu




SOURCES & CREDITS :

   NOAA       Earth
Advisory